Time;durP1;ratioP1;P1;durP2;ratioP2;P2;SDS_P1;SDS_P2;PMS_P1;PMS_P2;Temp;Humidity;BMP_temperature;BMP_pressure;BME280_temperature;BME280_humidity;BME280_pressure;Samples;Min_cycle;Max_cycle;Signal;HPM_P1;HPM_P2
2024/03/28 00:02:21;;;;;;;17.53;11.50;;;;;;;8.47;100.00;99413.81;5028877;28;20204;-72
2024/03/28 00:04:47;;;;;;;15.53;11.27;;;;;;;7.79;100.00;99310.44;5028590;28;20572;-72
2024/03/28 00:07:12;;;;;;;16.97;11.93;;;;;;;8.01;100.00;99369.59;5028437;28;20299;-72
2024/03/28 00:09:38;;;;;;;18.00;12.17;;;;;;;7.71;100.00;99324.06;5028556;28;20238;-72
2024/03/28 00:12:04;;;;;;;15.10;11.50;;;;;;;8.00;100.00;99341.28;5028041;28;20708;-72
2024/03/28 00:14:30;;;;;;;16.00;10.90;;;;;;;7.37;100.00;99234.63;5028603;28;20211;-73
2024/03/28 00:16:55;;;;;;;16.43;12.20;;;;;;;8.14;100.00;99347.31;5028562;28;20519;-72
2024/03/28 00:19:21;;;;;;;15.83;11.57;;;;;;;8.29;100.00;99379.84;5028825;28;20687;-72
2024/03/28 00:21:46;;;;;;;16.90;11.87;;;;;;;8.27;100.00;99371.22;5022487;28;20242;-72
2024/03/28 00:24:12;;;;;;;16.60;11.13;;;;;;;8.06;100.00;99334.25;5027172;28;20196;-72
2024/03/28 00:26:37;;;;;;;17.03;11.77;;;;;;;8.13;100.00;99329.66;5025538;28;20246;-72
2024/03/28 00:29:03;;;;;;;14.30;10.63;;;;;;;8.31;100.00;99336.91;5023661;28;20192;-72
2024/03/28 00:31:28;;;;;;;14.93;10.83;;;;;;;8.27;100.00;99325.81;5024470;28;20234;-72
2024/03/28 00:33:54;;;;;;;14.93;10.63;;;;;;;7.74;100.00;99246.22;5025192;28;20224;-72
2024/03/28 00:36:20;;;;;;;15.33;11.70;;;;;;;8.19;100.00;99317.25;5008889;28;20227;-72
2024/03/28 00:38:45;;;;;;;18.20;11.73;;;;;;;8.33;100.00;99340.13;5023958;28;20211;-72
2024/03/28 00:41:11;;;;;;;14.33;10.73;;;;;;;8.11;100.00;99316.53;5022965;28;20283;-72
2024/03/28 00:43:36;;;;;;;16.00;11.10;;;;;;;8.33;100.00;99357.00;5026259;28;20214;-72
2024/03/28 00:46:02;;;;;;;15.77;11.70;;;;;;;8.29;100.00;99355.81;5024962;28;20573;-72
2024/03/28 00:48:27;;;;;;;16.63;11.97;;;;;;;7.46;100.00;99260.81;5025800;28;20188;-72
2024/03/28 00:50:55;;;;;;;14.70;11.37;;;;;;;7.56;100.00;99235.50;5024622;28;20197;-72
2024/03/28 00:53:20;;;;;;;17.07;11.70;;;;;;;8.33;100.00;99356.16;5025009;28;20212;-72
2024/03/28 00:55:47;;;;;;;16.37;12.30;;;;;;;8.10;100.00;99314.91;5006788;28;20612;-72
2024/03/28 00:58:13;;;;;;;15.40;11.37;;;;;;;8.28;100.00;99351.50;5025805;28;20203;-72
2024/03/28 01:00:40;;;;;;;15.43;11.33;;;;;;;7.92;100.00;99286.28;5026242;28;20451;-72
2024/03/28 01:03:06;;;;;;;17.20;12.03;;;;;;;8.25;100.00;99343.94;5024274;28;20462;-72
2024/03/28 01:05:31;;;;;;;17.03;12.03;;;;;;;7.62;100.00;99269.31;5024057;28;20831;-72
2024/03/28 01:07:57;;;;;;;16.63;11.80;;;;;;;7.65;100.00;99264.34;5024029;28;20440;-72
2024/03/28 01:10:22;;;;;;;15.83;11.20;;;;;;;8.28;100.00;99372.06;5023750;28;20190;-73
2024/03/28 01:12:48;;;;;;;19.43;12.63;;;;;;;7.61;100.00;99259.69;5023595;28;20615;-72
2024/03/28 01:15:14;;;;;;;18.93;13.03;;;;;;;7.60;100.00;99268.72;5025198;28;20219;-73
2024/03/28 01:17:39;;;;;;;16.80;11.87;;;;;;;8.23;100.00;99370.03;5023204;28;20180;-72
2024/03/28 01:20:07;;;;;;;18.20;12.93;;;;;;;7.76;100.00;99302.06;5006302;28;20200;-72
2024/03/28 01:22:32;;;;;;;17.40;12.50;;;;;;;8.13;100.00;99348.38;5024523;28;20215;-72
2024/03/28 01:24:58;;;;;;;18.77;13.93;;;;;;;7.81;100.00;99300.38;5024160;28;20459;-73
2024/03/28 01:27:23;;;;;;;17.93;12.70;;;;;;;8.10;100.00;99348.78;5008830;28;20280;-72
2024/03/28 01:29:51;;;;;;;19.03;13.83;;;;;;;7.59;100.00;99291.09;5021864;28;20267;-72
2024/03/28 01:32:19;;;;;;;17.80;12.93;;;;;;;8.07;100.00;99366.09;5024878;28;20271;-72
2024/03/28 01:34:44;;;;;;;16.13;12.50;;;;;;;7.78;100.00;99303.47;5023007;28;20478;-72
2024/03/28 01:37:10;;;;;;;18.33;12.47;;;;;;;7.61;100.00;99254.34;5024563;28;20537;-72
2024/03/28 01:39:35;;;;;;;19.10;13.80;;;;;;;7.38;100.00;99214.94;5026587;28;20200;-72
2024/03/28 01:42:01;;;;;;;17.30;13.20;;;;;;;7.65;100.00;99255.53;5027336;28;20731;-72
2024/03/28 01:44:26;;;;;;;17.50;12.20;;;;;;;8.08;100.00;99319.63;5029570;28;20191;-72
2024/03/28 01:46:54;;;;;;;18.97;13.90;;;;;;;7.33;100.00;99185.41;5028189;28;20184;-72
2024/03/28 01:49:20;;;;;;;17.83;13.10;;;;;;;7.46;100.00;99223.47;5026265;28;20652;-72
2024/03/28 01:51:46;;;;;;;18.60;13.17;;;;;;;7.43;100.00;99177.72;5028155;28;20466;-72
2024/03/28 01:54:14;;;;;;;18.23;13.63;;;;;;;8.17;100.00;99285.44;5025934;28;20181;-72
2024/03/28 01:56:42;;;;;;;17.70;12.57;;;;;;;7.26;100.00;99156.13;5028818;28;21150;-72
2024/03/28 01:59:09;;;;;;;17.83;12.63;;;;;;;7.53;100.00;99186.06;5027687;28;20465;-72
2024/03/28 02:01:38;;;;;;;17.10;12.47;;;;;;;8.09;100.00;99283.88;5010247;28;20628;-72
2024/03/28 02:04:07;;;;;;;18.07;12.70;;;;;;;8.07;100.00;99277.13;5027468;28;20449;-72
2024/03/28 02:06:34;;;;;;;20.60;13.50;;;;;;;8.09;100.00;99285.72;5027953;28;20927;-72
2024/03/28 02:09:00;;;;;;;17.37;12.97;;;;;;;7.61;100.00;99219.66;5027000;28;20442;-72
2024/03/28 02:11:25;;;;;;;20.10;14.47;;;;;;;7.78;100.00;99241.25;5027348;28;20837;-72
2024/03/28 02:13:50;;;;;;;17.50;12.40;;;;;;;8.20;100.00;99302.91;5028383;28;20573;-73
2024/03/28 02:16:16;;;;;;;16.50;12.27;;;;;;;7.82;100.00;99231.78;5009566;28;20195;-72
2024/03/28 02:18:42;;;;;;;16.47;12.00;;;;;;;8.02;100.00;99272.44;5027604;28;20192;-73
2024/03/28 02:21:07;;;;;;;18.47;13.17;;;;;;;7.77;100.00;99226.28;5024572;28;20211;-72
2024/03/28 02:23:34;;;;;;;18.50;13.00;;;;;;;8.02;100.00;99261.78;5027908;28;20200;-72
2024/03/28 02:25:59;;;;;;;17.60;12.00;;;;;;;7.86;100.00;99252.47;5026382;28;20203;-72
2024/03/28 02:28:25;;;;;;;17.10;12.47;;;;;;;7.74;100.00;99208.03;5024453;28;20923;-72
2024/03/28 02:30:51;;;;;;;18.50;13.00;;;;;;;8.16;100.00;99278.50;5025970;28;20184;-72
2024/03/28 02:33:16;;;;;;;17.67;13.30;;;;;;;7.95;100.00;99228.97;5025825;28;20212;-72
2024/03/28 02:35:42;;;;;;;18.97;12.80;;;;;;;7.86;100.00;99206.28;5023511;28;20192;-72
2024/03/28 02:38:07;;;;;;;18.33;14.17;;;;;;;8.16;100.00;99257.13;5008842;28;20188;-72
2024/03/28 02:40:32;;;;;;;17.90;14.00;;;;;;;7.68;100.00;99162.50;5025608;28;20200;-72
2024/03/28 02:42:58;;;;;;;18.80;13.30;;;;;;;8.25;100.00;99261.13;5025762;28;20196;-72
2024/03/28 02:45:23;;;;;;;19.90;13.40;;;;;;;8.24;100.00;99264.00;5020896;28;20204;-72
2024/03/28 02:47:49;;;;;;;16.57;12.00;;;;;;;7.89;100.00;99213.84;5025469;28;20184;-72
2024/03/28 02:50:14;;;;;;;16.40;12.63;;;;;;;8.19;100.00;99258.50;5026301;28;20203;-72
2024/03/28 02:52:40;;;;;;;20.07;13.97;;;;;;;8.01;100.00;99240.63;5025806;28;20212;-72
2024/03/28 02:55:06;;;;;;;21.17;13.27;;;;;;;7.37;100.00;99158.06;5027626;28;20188;-72
2024/03/28 02:57:31;;;;;;;18.60;13.43;;;;;;;7.62;100.00;99175.91;5030183;28;20192;-72
2024/03/28 02:59:57;;;;;;;16.00;11.60;;;;;;;7.54;100.00;99178.88;5025898;28;20481;-72
2024/03/28 03:02:23;;;;;;;17.97;12.97;;;;;;;7.88;100.00;99223.69;5022989;28;20270;-72
2024/03/28 03:04:48;;;;;;;21.43;13.83;;;;;;;7.93;100.00;99244.41;5024822;28;20275;-72
2024/03/28 03:07:14;;;;;;;16.90;12.50;;;;;;;8.09;100.00;99254.50;5025813;28;20199;-73
2024/03/28 03:09:41;;;;;;;20.20;13.10;;;;;;;7.95;100.00;99239.66;5023771;28;20270;-72
2024/03/28 03:12:07;;;;;;;18.90;13.20;;;;;;;8.20;100.00;99282.34;5024316;28;20518;-72
2024/03/28 03:14:33;;;;;;;18.37;13.17;;;;;;;8.18;100.00;99281.72;5025197;28;20474;-72
2024/03/28 03:16:58;;;;;;;16.20;12.47;;;;;;;7.76;100.00;99206.78;5021661;28;20326;-72
2024/03/28 03:19:24;;;;;;;17.00;11.57;;;;;;;7.93;100.00;99245.22;5023882;28;20196;-72
2024/03/28 03:21:51;;;;;;;17.37;12.50;;;;;;;7.51;100.00;99181.97;5025457;28;20200;-72
2024/03/28 03:24:20;;;;;;;18.60;13.23;;;;;;;8.02;100.00;99285.00;5025881;28;20267;-72
2024/03/28 03:26:52;;;;;;;17.43;12.17;;;;;;;7.77;100.00;99248.44;5025029;28;20794;-72
2024/03/28 03:34:50;;;;;;;17.23;12.70;;;;;;;7.88;100.00;99286.97;5025805;28;20445;-72
2024/03/28 03:37:20;;;;;;;16.57;12.27;;;;;;;8.16;100.00;99321.22;5006841;28;20470;-73
2024/03/28 03:39:46;;;;;;;17.73;12.73;;;;;;;7.82;100.00;99280.66;5024276;28;20454;-72
2024/03/28 03:42:11;;;;;;;16.20;11.70;;;;;;;7.57;100.00;99245.94;5026702;28;20463;-72
2024/03/28 03:44:37;;;;;;;16.13;12.13;;;;;;;8.13;100.00;99325.16;5025080;28;20215;-72
2024/03/28 03:47:03;;;;;;;20.80;13.93;;;;;;;8.16;100.00;99326.56;5027799;28;20201;-72
2024/03/28 03:49:28;;;;;;;16.87;12.00;;;;;;;8.08;100.00;99308.16;5028887;28;20451;-72
2024/03/28 03:51:54;;;;;;;18.07;13.43;;;;;;;8.15;100.00;99314.22;5025603;28;20211;-72
2024/03/28 03:54:19;;;;;;;17.10;12.50;;;;;;;7.80;100.00;99269.34;5027521;28;20234;-72
2024/03/28 03:56:45;;;;;;;19.40;13.50;;;;;;;7.68;100.00;99228.41;5022290;28;20695;-72
2024/03/28 03:59:10;;;;;;;17.70;12.63;;;;;;;8.18;100.00;99308.44;5025906;28;20203;-72
2024/03/28 04:01:36;;;;;;;18.23;12.90;;;;;;;7.82;100.00;99253.94;5025487;28;20219;-72
2024/03/28 04:04:02;;;;;;;17.13;12.20;;;;;;;8.18;100.00;99294.28;5027978;28;20184;-72
2024/03/28 04:06:28;;;;;;;20.63;13.77;;;;;;;7.93;100.00;99258.56;5025190;28;20322;-72
2024/03/28 04:08:53;;;;;;;17.90;13.10;;;;;;;8.14;100.00;99267.19;5026107;28;20541;-72
2024/03/28 04:11:19;;;;;;;16.03;11.97;;;;;;;7.71;100.00;99187.94;5025383;28;20215;-72
2024/03/28 04:13:44;;;;;;;18.10;13.17;;;;;;;7.53;100.00;99158.56;5022092;28;20755;-72
2024/03/28 04:16:10;;;;;;;17.83;13.30;;;;;;;7.52;100.00;99140.91;5026537;28;20188;-72
2024/03/28 04:18:35;;;;;;;16.47;12.50;;;;;;;8.07;100.00;99223.72;5024105;28;20546;-72
2024/03/28 04:21:01;;;;;;;18.20;12.77;;;;;;;7.43;100.00;99100.38;5024693;28;20492;-72
2024/03/28 04:23:27;;;;;;;17.30;12.50;;;;;;;7.95;100.00;99210.28;5024267;28;20234;-72
2024/03/28 04:25:56;;;;;;;17.30;13.30;;;;;;;8.03;100.00;99212.66;5026202;28;20237;-72
2024/03/28 04:28:22;;;;;;;18.23;13.20;;;;;;;7.56;100.00;99123.44;5024416;28;20447;-72
2024/03/28 04:30:47;;;;;;;17.43;12.77;;;;;;;8.13;100.00;99196.13;5022933;28;20446;-72
2024/03/28 04:33:13;;;;;;;19.17;13.73;;;;;;;7.83;100.00;99140.78;5022836;28;20219;-72
2024/03/28 04:35:38;;;;;;;19.67;13.23;;;;;;;8.02;100.00;99154.16;5024245;28;20200;-72
2024/03/28 04:38:04;;;;;;;16.87;12.80;;;;;;;8.05;100.00;99154.53;5021583;28;20192;-73
2024/03/28 04:40:30;;;;;;;18.53;14.17;;;;;;;8.05;100.00;99132.34;5006091;28;20191;-73
2024/03/28 04:42:56;;;;;;;16.97;12.80;;;;;;;7.93;100.00;99092.22;5026345;28;20494;-72
2024/03/28 04:45:22;;;;;;;17.93;13.53;;;;;;;7.95;100.00;99086.66;5007221;28;20478;-73
2024/03/28 04:47:48;;;;;;;18.03;13.70;;;;;;;7.88;100.00;99068.06;5024219;28;20218;-73
2024/03/28 04:50:14;;;;;;;17.17;12.60;;;;;;;7.79;100.00;99069.41;5022092;28;20272;-72
2024/03/28 04:52:40;;;;;;;16.53;12.53;;;;;;;7.29;100.00;98970.84;5024167;28;20475;-72
2024/03/28 04:55:06;;;;;;;18.30;13.37;;;;;;;7.35;100.00;98997.47;5028106;28;22539;-72
2024/03/28 04:57:32;;;;;;;17.40;12.30;;;;;;;7.70;100.00;99024.34;5026704;28;20203;-73
2024/03/28 04:59:57;;;;;;;16.70;12.80;;;;;;;7.33;100.00;98972.06;5003837;28;20443;-72
2024/03/28 05:02:23;;;;;;;15.00;11.37;;;;;;;7.91;100.00;99055.06;5026915;28;20262;-72
2024/03/28 05:04:48;;;;;;;16.40;12.10;;;;;;;7.62;100.00;99000.63;5006400;28;21164;-72
2024/03/28 05:07:15;;;;;;;16.20;11.67;;;;;;;7.90;100.00;99037.44;5021140;28;20243;-72
2024/03/28 05:09:40;;;;;;;15.87;12.20;;;;;;;7.71;100.00;99014.47;5022707;28;20569;-72
2024/03/28 05:12:06;;;;;;;15.20;10.50;;;;;;;7.97;100.00;99041.88;5026485;28;20501;-72
2024/03/28 05:14:32;;;;;;;14.80;11.23;;;;;;;7.27;100.00;98941.75;5031621;28;20195;-72
2024/03/28 05:16:57;;;;;;;13.43;10.20;;;;;;;7.93;100.00;99031.66;5032627;28;20435;-73
2024/03/28 05:19:25;;;;;;;15.60;10.53;;;;;;;7.12;100.00;98928.81;5031554;28;20192;-72
2024/03/28 05:21:51;;;;;;;13.03;9.53;;;;;;;7.55;100.00;98967.03;5009412;28;20235;-72
2024/03/28 05:24:17;;;;;;;14.80;9.40;;;;;;;7.78;100.00;99006.38;5031178;28;20915;-72
2024/03/28 05:26:42;;;;;;;13.90;9.67;;;;;;;7.50;100.00;98929.59;5030064;28;20465;-72
2024/03/28 05:29:08;;;;;;;12.73;8.63;;;;;;;7.37;100.00;98904.69;5013570;28;20509;-72
2024/03/28 05:31:33;;;;;;;12.43;8.90;;;;;;;7.66;100.00;98937.75;5028421;28;20700;-73
2024/03/28 05:33:59;;;;;;;10.00;6.93;;;;;;;7.75;100.00;98956.94;5025520;28;20858;-72
2024/03/28 05:36:24;;;;;;;11.90;7.47;;;;;;;7.22;100.00;98864.28;5024992;28;20200;-72
2024/03/28 05:38:50;;;;;;;11.10;6.20;;;;;;;7.62;100.00;98909.91;5022917;28;21228;-72
2024/03/28 05:41:16;;;;;;;10.70;6.63;;;;;;;7.74;100.00;98927.81;5031730;28;20216;-72
2024/03/28 05:43:42;;;;;;;14.20;5.73;;;;;;;7.82;100.00;98914.97;5008941;28;20512;-72
2024/03/28 05:46:07;;;;;;;9.07;5.13;;;;;;;7.01;100.00;98780.28;5025223;28;20188;-73
2024/03/28 05:48:32;;;;;;;9.60;4.97;;;;;;;7.77;100.00;98866.78;5026337;28;20562;-72
2024/03/28 05:50:58;;;;;;;8.37;4.83;;;;;;;7.36;100.00;98785.72;5027068;28;20206;-72
2024/03/28 05:53:23;;;;;;;9.77;4.83;;;;;;;7.55;100.00;98798.97;5024633;28;20299;-72
2024/03/28 05:55:48;;;;;;;8.90;5.20;;;;;;;7.15;100.00;98719.59;5006771;28;20192;-72
2024/03/28 05:58:14;;;;;;;8.80;4.73;;;;;;;7.73;100.00;98806.91;5028213;28;20188;-72
2024/03/28 06:00:39;;;;;;;9.20;5.30;;;;;;;7.50;100.00;98756.19;5025938;28;20246;-72
2024/03/28 06:03:05;;;;;;;9.30;5.47;;;;;;;7.48;100.00;98751.06;5029375;28;20240;-72
2024/03/28 06:05:31;;;;;;;8.73;4.90;;;;;;;7.59;100.00;98760.13;5028562;28;20180;-73
2024/03/28 06:07:57;;;;;;;9.47;5.63;;;;;;;7.34;100.00;98715.78;5033558;28;20200;-72
2024/03/28 06:10:22;;;;;;;10.20;5.30;;;;;;;7.54;100.00;98734.13;5027349;28;20450;-73
2024/03/28 06:12:48;;;;;;;10.37;5.93;;;;;;;7.42;100.00;98701.31;5010167;28;20220;-72
2024/03/28 06:15:14;;;;;;;9.83;5.47;;;;;;;6.95;100.00;98632.72;5030734;28;20192;-72
2024/03/28 06:17:39;;;;;;;8.43;5.20;;;;;;;7.32;100.00;98667.22;5031200;28;20193;-73
2024/03/28 06:20:05;;;;;;;8.70;5.30;;;;;;;6.69;100.00;98579.84;5030493;28;20183;-72
2024/03/28 06:22:31;;;;;;;9.70;4.60;;;;;;;6.91;100.00;98607.56;5028657;28;20219;-73
2024/03/28 06:24:56;;;;;;;8.93;4.70;;;;;;;6.99;100.00;98604.56;5027148;28;20562;-73
2024/03/28 06:27:23;;;;;;;10.70;5.40;;;;;;;7.17;100.00;98582.31;5028127;28;20633;-72
2024/03/28 06:29:51;;;;;;;8.07;4.60;;;;;;;7.72;100.00;98655.81;5028813;28;20187;-72
2024/03/28 06:32:26;;;;;;;8.97;4.67;;;;;;;6.84;100.00;98502.94;5029739;28;20572;-73
2024/03/28 06:34:55;;;;;;;8.03;3.90;;;;;;;6.98;100.00;98531.00;5008762;28;20438;-72
2024/03/28 06:37:21;;;;;;;8.90;4.57;;;;;;;7.73;100.00;98589.97;5009874;28;20450;-72
2024/03/28 06:39:49;;;;;;;8.03;4.43;;;;;;;7.35;100.00;98516.59;5027711;28;20890;-72
2024/03/28 06:42:14;;;;;;;10.03;5.03;;;;;;;7.66;100.00;98566.84;5010622;28;20466;-72
2024/03/28 06:44:50;;;;;;;8.83;4.73;;;;;;;7.37;100.00;98531.28;5026996;28;20447;-72
2024/03/28 06:47:16;;;;;;;10.67;4.87;;;;;;;7.10;100.00;98503.53;5030373;28;20188;-72
2024/03/28 06:49:42;;;;;;;11.70;4.70;;;;;;;7.47;100.00;98576.06;5029638;28;20438;-72
2024/03/28 06:52:08;;;;;;;6.80;4.10;;;;;;;7.49;100.00;98581.97;5030350;28;20466;-73
2024/03/28 06:54:33;;;;;;;8.20;4.53;;;;;;;7.29;100.00;98560.19;5030490;28;21830;-72
2024/03/28 06:56:59;;;;;;;8.33;4.23;;;;;;;6.90;100.00;98510.00;5030336;28;20435;-72
2024/03/28 06:59:25;;;;;;;9.23;4.80;;;;;;;7.19;100.00;98518.13;5029967;28;20206;-72
2024/03/28 07:01:51;;;;;;;6.80;3.53;;;;;;;7.04;100.00;98467.13;5027881;28;20666;-72
2024/03/28 07:04:17;;;;;;;7.40;3.97;;;;;;;7.59;100.00;98525.38;5026322;28;20180;-73
2024/03/28 07:06:42;;;;;;;6.87;3.90;;;;;;;7.41;100.00;98467.66;5028996;28;20442;-72
2024/03/28 07:09:08;;;;;;;8.03;4.23;;;;;;;7.11;100.00;98393.97;5030182;28;20187;-72
2024/03/28 07:11:34;;;;;;;8.33;3.77;;;;;;;7.09;100.00;98395.25;5030203;28;20955;-72
2024/03/28 07:14:00;;;;;;;8.23;3.93;;;;;;;6.94;100.00;98383.25;5029550;28;20231;-72
2024/03/28 07:16:25;;;;;;;7.10;4.00;;;;;;;7.65;100.00;98460.38;5014204;28;20212;-72
2024/03/28 07:18:53;;;;;;;7.23;3.67;;;;;;;7.56;100.00;98472.47;5030464;28;20254;-72
2024/03/28 07:21:19;;;;;;;8.07;4.07;;;;;;;7.39;100.00;98465.22;5009749;28;20208;-72
2024/03/28 07:23:46;;;;;;;7.80;4.10;;;;;;;7.16;100.00;98403.94;5026670;28;20435;-72
2024/03/28 07:26:11;;;;;;;7.40;4.00;;;;;;;7.20;100.00;98365.09;5007116;28;20242;-72
2024/03/28 07:28:37;;;;;;;7.90;3.77;;;;;;;7.27;100.00;98367.63;5029951;28;20431;-72
2024/03/28 07:31:02;;;;;;;8.17;4.23;;;;;;;7.98;100.00;98429.47;5005367;28;20191;-72
2024/03/28 07:33:28;;;;;;;7.20;3.90;;;;;;;7.68;100.00;98339.84;5025131;28;20892;-73
2024/03/28 07:35:53;;;;;;;6.83;3.47;;;;;;;7.06;100.00;98220.66;5025363;28;20200;-73
2024/03/28 07:38:19;;;;;;;7.00;3.00;;;;;;;7.54;100.00;98269.16;5024091;28;20192;-72
2024/03/28 07:40:49;;;;;;;7.20;3.47;;;;;;;7.78;100.00;98259.97;5004339;28;20212;-72
2024/03/28 07:43:15;;;;;;;7.50;3.77;;;;;;;7.39;100.00;98193.19;5025484;28;20200;-72
2024/03/28 07:45:41;;;;;;;5.70;2.90;;;;;;;7.86;100.00;98250.72;5005235;28;20454;-73
2024/03/28 07:48:07;;;;;;;6.10;3.10;;;;;;;7.81;100.00;98216.78;5025668;28;20191;-73
2024/03/28 07:50:32;;;;;;;7.90;3.40;;;;;;;8.11;100.00;98248.44;5028450;28;20446;-72
2024/03/28 07:52:58;;;;;;;7.10;3.57;;;;;;;8.15;100.00;98248.72;5005085;28;20910;-73
2024/03/28 07:55:24;;;;;;;6.40;3.13;;;;;;;8.08;100.00;98219.56;5026145;28;20219;-73
2024/03/28 07:57:50;;;;;;;6.80;3.47;;;;;;;8.18;100.00;98228.75;5026348;28;20192;-72
2024/03/28 08:00:16;;;;;;;6.80;3.10;;;;;;;7.81;100.00;98165.25;5024859;28;20923;-73
2024/03/28 08:02:43;;;;;;;6.60;3.57;;;;;;;8.16;100.00;98213.00;5023688;28;20465;-73
2024/03/28 08:05:11;;;;;;;7.10;3.40;;;;;;;8.17;100.00;98192.44;5026384;28;20184;-73
2024/03/28 08:07:36;;;;;;;7.00;3.60;;;;;;;7.78;100.00;98105.19;5008351;28;20443;-73
2024/03/28 08:10:02;;;;;;;6.07;2.97;;;;;;;8.31;100.00;98162.44;5024112;28;20493;-73
2024/03/28 08:12:28;;;;;;;10.40;3.10;;;;;;;8.18;100.00;98132.63;5025025;28;20220;-73
2024/03/28 08:14:54;;;;;;;7.00;3.07;;;;;;;8.01;100.00;98077.44;5027458;28;20846;-73
2024/03/28 08:17:19;;;;;;;6.07;3.07;;;;;;;8.26;100.00;98119.63;5025599;28;20198;-72
2024/03/28 08:19:45;;;;;;;7.20;3.07;;;;;;;8.28;100.00;98109.53;5025161;28;20450;-73
2024/03/28 08:22:10;;;;;;;6.53;3.23;;;;;;;8.15;100.00;98073.31;5023767;28;20741;-73
2024/03/28 08:24:39;;;;;;;5.80;3.13;;;;;;;8.40;100.00;98104.06;5025594;28;20192;-73
2024/03/28 08:27:04;;;;;;;6.50;3.40;;;;;;;8.54;100.00;98099.13;5025789;28;20579;-73
2024/03/28 08:29:30;;;;;;;6.10;3.00;;;;;;;8.59;100.00;98073.28;5024335;28;21597;-73
2024/03/28 08:31:56;;;;;;;8.53;4.60;;;;;;;8.68;100.00;98056.75;5025520;28;20589;-73
2024/03/28 08:34:22;;;;;;;7.03;3.67;;;;;;;8.64;100.00;98040.44;5024396;28;20186;-73
2024/03/28 08:36:47;;;;;;;8.97;4.33;;;;;;;8.04;100.00;97953.31;5003760;28;20457;-73
2024/03/28 08:39:14;;;;;;;8.20;4.50;;;;;;;8.78;100.00;98016.78;5025502;28;20836;-73
2024/03/28 08:41:40;;;;;;;8.80;4.67;;;;;;;8.58;100.00;98007.53;5003166;28;20525;-73
2024/03/28 08:44:08;;;;;;;9.10;4.43;;;;;;;8.63;100.00;97996.09;5024790;28;20486;-73
2024/03/28 08:46:34;;;;;;;12.53;5.40;;;;;;;8.74;100.00;98021.81;5025979;28;20465;-73
2024/03/28 08:49:00;;;;;;;11.83;6.73;;;;;;;8.95;100.00;98006.72;5005503;28;20972;-72
2024/03/28 08:51:26;;;;;;;9.03;5.60;;;;;;;8.96;100.00;97980.81;5020472;28;20354;-73
2024/03/28 08:53:52;;;;;;;9.23;6.03;;;;;;;8.83;100.00;97977.53;5025023;28;21160;-73
2024/03/28 08:56:20;;;;;;;10.70;6.00;;;;;;;8.75;100.00;97961.16;5022696;28;20442;-73
2024/03/28 08:58:45;;;;;;;10.13;6.00;;;;;;;8.01;100.00;97869.22;5026376;28;20283;-73
2024/03/28 09:01:12;;;;;;;10.83;6.70;;;;;;;8.40;100.00;97909.09;5026889;28;20921;-72
2024/03/28 09:03:38;;;;;;;10.27;6.50;;;;;;;8.53;100.00;97964.75;5024236;28;20176;-73
2024/03/28 09:06:09;;;;;;;9.63;6.13;;;;;;;8.92;100.00;97972.50;5026343;28;20443;-73
2024/03/28 09:08:38;;;;;;;10.67;6.63;;;;;;;9.03;100.00;97970.69;5022544;28;20211;-73
2024/03/28 09:11:06;;;;;;;9.67;6.23;;;;;;;8.63;100.00;97912.44;5022775;28;20821;-73
2024/03/28 09:13:31;;;;;;;10.13;6.63;;;;;;;9.11;100.00;97980.88;5026828;28;20474;-72
2024/03/28 09:16:00;;;;;;;13.00;8.33;;;;;;;8.68;100.00;97896.44;5007998;28;20427;-73
2024/03/28 09:18:25;;;;;;;12.37;8.37;;;;;;;8.28;100.00;97853.16;5026668;28;20184;-72
2024/03/28 09:20:51;;;;;;;11.03;7.57;;;;;;;9.20;100.00;97960.63;5024742;28;20430;-72
2024/03/28 09:23:18;;;;;;;13.67;8.33;;;;;;;8.86;100.00;97927.28;5023385;28;20232;-73
2024/03/28 09:25:43;;;;;;;13.90;8.83;;;;;;;8.48;100.00;98090.25;5021218;28;20503;-73
2024/03/28 09:28:08;;;;;;;13.43;8.10;;;;;;;8.72;100.00;98122.00;5023089;28;21398;-72
2024/03/28 09:30:34;;;;;;;13.20;9.00;;;;;;;8.77;100.00;98077.44;5022231;28;20274;-73
2024/03/28 09:32:59;;;;;;;13.30;8.43;;;;;;;9.39;100.00;98128.72;5024899;28;20223;-73
2024/03/28 09:35:25;;;;;;;11.80;8.63;;;;;;;9.26;100.00;98058.56;5004671;28;20224;-73
2024/03/28 09:37:50;;;;;;;12.83;9.17;;;;;;;10.00;100.00;98133.59;5022343;28;20638;-73
2024/03/28 09:40:16;;;;;;;12.93;9.37;;;;;;;9.14;100.00;97976.88;5022754;28;20249;-73
2024/03/28 09:42:44;;;;;;;16.13;10.80;;;;;;;10.04;100.00;98097.19;5022636;28;20204;-73
2024/03/28 09:45:14;;;;;;;12.77;8.63;;;;;;;10.06;100.00;98081.69;5023962;28;20271;-73
2024/03/28 09:47:41;;;;;;;15.67;11.00;;;;;;;9.96;100.00;98031.56;5025070;28;20447;-73
2024/03/28 09:50:11;;;;;;;13.30;10.30;;;;;;;10.25;100.00;98045.31;5023892;28;20435;-73
2024/03/28 09:52:38;;;;;;;14.77;11.50;;;;;;;10.22;100.00;98028.97;5024580;28;20510;-73
2024/03/28 09:55:07;;;;;;;15.20;10.80;;;;;;;10.18;100.00;97985.81;5023687;28;21056;-73
2024/03/28 09:57:33;;;;;;;13.10;9.47;;;;;;;10.25;100.00;97956.91;5022576;28;20818;-73
2024/03/28 10:00:00;;;;;;;14.70;10.50;;;;;;;9.96;100.00;97887.00;5020175;28;20438;-73
2024/03/28 10:02:34;;;;;;;14.70;10.63;;;;;;;10.51;100.00;97952.41;5003062;28;20533;-73
2024/03/28 10:05:01;;;;;;;13.50;11.03;;;;;;;9.79;100.00;97870.38;5028126;28;20453;-73
2024/03/28 10:07:27;;;;;;;13.50;10.80;;;;;;;9.80;100.00;97990.56;5030023;28;20438;-73
2024/03/28 10:09:53;;;;;;;13.40;10.00;;;;;;;10.01;100.00;97983.41;5028558;28;20458;-72
2024/03/28 10:12:18;;;;;;;15.43;10.47;;;;;;;10.21;100.00;97987.16;5027821;28;20216;-73
2024/03/28 10:14:54;;;;;;;13.60;9.67;;;;;;;10.41;100.00;98003.28;5010664;28;20200;-73
2024/03/28 10:17:20;;;;;;;13.70;10.80;;;;;;;10.28;100.00;98001.16;5030724;28;20200;-73
2024/03/28 10:20:07;;;;;;;14.23;10.90;;;;;;;10.73;100.00;98045.94;5028629;28;20485;-73
2024/03/28 10:22:41;;;;;;;13.43;10.13;;;;;;;9.85;100.00;97920.97;5007534;28;20216;-73
2024/03/28 10:25:17;;;;;;;13.87;10.93;;;;;;;10.15;100.00;97889.94;5031793;28;20494;-73
2024/03/28 10:27:42;;;;;;;13.17;9.33;;;;;;;10.00;100.00;97957.66;5027219;28;20572;-73
2024/03/28 10:30:11;;;;;;;15.40;9.97;;;;;;;10.54;100.00;97991.25;5028790;28;20553;-73
2024/03/28 10:32:37;;;;;;;13.10;10.00;;;;;;;10.76;100.00;98018.59;5027469;28;20212;-72
2024/03/28 10:35:03;;;;;;;11.97;8.63;;;;;;;10.66;100.00;97999.03;5027253;28;20449;-73
2024/03/28 10:37:29;;;;;;;14.63;9.60;;;;;;;9.99;100.00;97917.78;5027459;28;20275;-73
2024/03/28 10:39:54;;;;;;;12.53;8.97;;;;;;;10.52;100.00;97996.88;5027060;28;20184;-73
2024/03/28 10:42:20;;;;;;;14.53;9.53;;;;;;;10.80;100.00;97994.72;5003742;28;20529;-73
2024/03/28 10:44:46;;;;;;;13.77;9.20;;;;;;;10.26;100.00;98016.66;5034713;28;20195;-73
2024/03/28 10:47:15;;;;;;;15.43;9.90;;;;;;;10.04;100.00;98073.91;5015584;28;20216;-73
2024/03/28 10:50:07;;;;;;;13.40;9.00;;;;;;;9.77;100.00;97999.13;5026733;28;20434;-73
2024/03/28 10:52:40;;;;;;;12.40;8.70;;;;;;;10.21;100.00;98052.25;5024850;28;20474;-72
2024/03/28 10:55:07;;;;;;;14.87;9.63;;;;;;;10.24;100.00;98008.88;5026638;28;20486;-72
2024/03/28 10:57:34;;;;;;;14.83;8.67;;;;;;;10.98;100.00;98095.28;5028669;28;20553;-73
2024/03/28 10:59:59;;;;;;;15.00;8.90;;;;;;;10.88;100.00;98082.69;5026445;28;20447;-73
2024/03/28 11:02:27;;;;;;;14.53;9.43;;;;;;;10.94;100.00;98078.13;5018613;28;20459;-73
2024/03/28 11:04:53;;;;;;;14.00;9.07;;;;;;;10.54;100.00;98034.13;5022537;28;20194;-73
2024/03/28 11:07:23;;;;;;;13.40;8.87;;;;;;;10.78;100.00;98053.97;5022203;28;20431;-73
2024/03/28 11:09:54;;;;;;;14.07;9.50;;;;;;;10.26;100.00;97942.44;5024012;28;21481;-73
2024/03/28 11:12:20;;;;;;;12.60;7.83;;;;;;;10.96;100.00;98019.63;5023271;28;20474;-73
2024/03/28 11:15:00;;;;;;;11.10;7.17;;;;;;;11.22;100.00;98015.03;5002347;28;20536;-73
2024/03/28 11:17:26;;;;;;;11.43;7.00;;;;;;;11.57;100.00;97888.00;5026776;28;20867;-72
2024/03/28 11:20:09;;;;;;;10.80;6.80;;;;;;;11.15;100.00;97859.75;5006060;28;20470;-73
2024/03/28 11:22:38;;;;;;;11.87;5.83;;;;;;;11.93;100.00;97944.19;5006272;28;20254;-73
2024/03/28 11:25:30;;;;;;;10.17;6.10;;;;;;;11.34;100.00;97988.72;5023013;28;20450;-73